Time;durP1;ratioP1;P1;durP2;ratioP2;P2;SDS_P1;SDS_P2;PMS_P1;PMS_P2;Temp;Humidity;BMP_temperature;BMP_pressure;BME280_temperature;BME280_humidity;BME280_pressure;Samples;Min_cycle;Max_cycle;Signal;HPM_P1;HPM_P2
2021/04/06 00:01:43;;;;;;;12.10;6.60;;;;;;;2.69;59.82;98317.78;1756590;79;21213;-63
2021/04/06 00:04:21;;;;;;;10.40;6.78;;;;;;;2.66;60.05;98309.66;1745362;80;22111;-63
2021/04/06 00:06:54;;;;;;;10.38;7.50;;;;;;;2.63;60.35;98318.83;1736354;81;21562;-63
2021/04/06 00:09:25;;;;;;;13.60;7.78;;;;;;;2.60;60.50;98317.65;1753955;81;21623;-63
2021/04/06 00:11:55;;;;;;;10.30;7.00;;;;;;;2.61;60.25;98319.33;1756669;79;21678;-64
2021/04/06 00:14:24;;;;;;;10.55;7.42;;;;;;;2.63;60.74;98318.83;1755168;79;21162;-63
2021/04/06 00:16:53;;;;;;;9.58;6.92;;;;;;;2.63;60.66;98311.05;1735549;81;21588;-64
2021/04/06 00:19:23;;;;;;;10.80;7.05;;;;;;;2.66;60.67;98317.91;1754516;81;21209;-64
2021/04/06 00:21:53;;;;;;;11.90;7.50;;;;;;;2.65;60.47;98314.89;1736105;79;21106;-64
2021/04/06 00:24:22;;;;;;;10.72;7.05;;;;;;;2.66;60.40;98316.61;1754348;79;21678;-64
2021/04/06 00:26:55;;;;;;;10.10;7.50;;;;;;;2.64;60.91;98310.62;1752874;80;21635;-64
2021/04/06 00:29:26;;;;;;;10.15;7.25;;;;;;;2.62;60.84;98310.66;1761828;79;22056;-64
2021/04/06 00:31:56;;;;;;;10.88;7.15;;;;;;;2.59;61.06;98311.20;1768106;80;21652;-62
2021/04/06 00:34:24;;;;;;;11.15;7.22;;;;;;;2.59;60.97;98306.85;1768457;80;21556;-62
2021/04/06 00:36:56;;;;;;;12.90;8.23;;;;;;;2.58;60.98;98305.17;1770564;80;21628;-63
2021/04/06 00:39:30;;;;;;;11.78;7.83;;;;;;;2.59;61.03;98299.52;1768252;80;21639;-63
2021/04/06 00:42:19;;;;;;;10.85;8.30;;;;;;;2.59;61.02;98300.82;1767140;80;21920;-62
2021/04/06 00:44:53;;;;;;;11.22;7.17;;;;;;;2.56;61.33;98286.64;1768141;80;21655;-62
2021/04/06 00:47:28;;;;;;;11.57;7.40;;;;;;;2.57;61.21;98297.43;1769509;80;21493;-63
2021/04/06 00:50:07;;;;;;;8.68;7.08;;;;;;;2.52;61.73;98295.84;1767229;80;22100;-63
2021/04/06 00:52:44;;;;;;;10.65;7.30;;;;;;;2.50;61.51;98293.71;1749594;81;22235;-64
2021/04/06 00:55:19;;;;;;;9.50;6.97;;;;;;;2.47;62.29;98295.13;1767855;80;22205;-63
2021/04/06 00:57:47;;;;;;;12.73;8.20;;;;;;;2.43;62.19;98292.66;1768747;80;21626;-63
2021/04/06 01:00:25;;;;;;;9.70;7.78;;;;;;;2.45;61.93;98296.05;1768880;80;21564;-62
2021/04/06 01:03:03;;;;;;;10.15;8.13;;;;;;;2.45;61.99;98296.05;1767987;80;22807;-63
2021/04/06 01:05:35;;;;;;;8.78;6.97;;;;;;;2.46;62.09;98296.01;1768345;80;21588;-64
2021/04/06 01:08:04;;;;;;;10.28;6.90;;;;;;;2.47;62.05;98288.64;1763173;80;22502;-64
2021/04/06 01:10:34;;;;;;;9.20;7.45;;;;;;;2.49;62.03;98297.22;1742205;80;21568;-64
2021/04/06 01:13:02;;;;;;;9.58;7.50;;;;;;;2.51;61.92;98290.23;1765345;80;21158;-64
2021/04/06 01:15:30;;;;;;;10.38;7.75;;;;;;;2.50;62.09;98283.33;1737637;80;21694;-64
2021/04/06 01:17:58;;;;;;;12.20;7.90;;;;;;;2.45;62.36;98279.19;1719951;80;21646;-64
2021/04/06 01:20:26;;;;;;;9.95;7.65;;;;;;;2.42;62.60;98285.79;1768706;80;22069;-65
2021/04/06 01:22:55;;;;;;;11.08;7.47;;;;;;;2.43;62.52;98279.69;1768438;80;21643;-65
2021/04/06 01:25:25;;;;;;;10.60;8.10;;;;;;;2.47;62.34;98285.20;1743904;80;21631;-65
2021/04/06 01:28:09;;;;;;;10.40;7.83;;;;;;;2.50;62.24;98287.22;1768394;79;21138;-64
2021/04/06 01:30:45;;;;;;;11.78;7.67;;;;;;;2.58;62.02;98289.60;1757763;79;21963;-63
2021/04/06 01:33:15;;;;;;;9.00;7.70;;;;;;;2.59;61.95;98287.84;1754628;79;22006;-62
2021/04/06 01:35:53;;;;;;;10.60;7.87;;;;;;;2.63;61.81;98286.84;1751567;80;21651;-64
2021/04/06 01:38:25;;;;;;;9.85;7.28;;;;;;;2.65;61.80;98291.08;1755498;79;21493;-63
2021/04/06 01:40:55;;;;;;;10.95;7.60;;;;;;;2.65;62.05;98291.08;1755860;79;21159;-64
2021/04/06 01:43:27;;;;;;;10.18;7.58;;;;;;;2.63;61.98;98290.28;1755582;79;21625;-64
2021/04/06 01:46:11;;;;;;;10.85;8.08;;;;;;;2.63;61.81;98283.80;1754020;79;21916;-63
2021/04/06 01:48:33;;;;;;;9.60;7.22;;;;;;;2.65;61.80;98281.16;1753493;79;21651;-64
2021/04/06 01:51:01;;;;;;;12.43;8.55;;;;;;;2.63;61.81;98286.84;1754033;80;21177;-64
2021/04/06 01:53:29;;;;;;;10.30;8.03;;;;;;;2.64;61.88;98292.45;1753050;80;21642;-63
2021/04/06 01:56:04;;;;;;;10.55;7.85;;;;;;;2.65;62.26;98291.08;1707160;79;21636;-63
2021/04/06 01:58:32;;;;;;;13.62;7.85;;;;;;;2.68;61.83;98290.15;1753428;79;21971;-63
2021/04/06 02:03:52;;;;;;;11.22;7.87;;;;;;;2.78;61.73;98290.70;1856328;75;23126;-60
2021/04/06 02:06:17;;;;;;;11.55;8.28;;;;;;;2.75;61.61;98286.46;1787442;77;21492;-62
2021/04/06 02:08:48;;;;;;;9.68;8.13;;;;;;;2.77;61.53;98291.58;1754508;78;21913;-62
2021/04/06 02:11:31;;;;;;;8.73;7.55;;;;;;;2.78;61.46;98291.53;1789307;78;22156;-64
2021/04/06 02:14:12;;;;;;;13.68;7.35;;;;;;;2.76;61.48;98286.84;1797923;77;21540;-62
2021/04/06 02:17:04;;;;;;;13.13;7.97;;;;;;;2.70;61.72;98292.24;1764466;78;21643;-64
2021/04/06 02:19:39;;;;;;;12.85;8.53;;;;;;;2.62;61.81;98293.79;1788982;77;21173;-63
2021/04/06 02:22:12;;;;;;;10.20;8.20;;;;;;;2.55;62.00;98299.23;1784701;78;22010;-63
2021/04/06 02:24:51;;;;;;;13.75;7.90;;;;;;;2.55;62.03;98286.25;1790126;78;21632;-63
2021/04/06 02:27:29;;;;;;;11.75;8.18;;;;;;;2.55;62.09;98287.55;1791609;78;21604;-63
2021/04/06 02:30:03;;;;;;;9.90;8.00;;;;;;;2.51;62.32;98290.69;1771368;79;21659;-64
2021/04/06 02:32:34;;;;;;;17.10;8.25;;;;;;;2.46;62.49;98282.20;1793368;77;21673;-65
2021/04/06 02:35:06;;;;;;;10.72;8.15;;;;;;;2.44;62.64;98275.75;1756818;79;21583;-65
2021/04/06 02:37:37;;;;;;;10.90;7.90;;;;;;;2.42;62.73;98272.81;1794640;77;21647;-65
2021/04/06 02:40:08;;;;;;;12.20;8.43;;;;;;;2.41;62.79;98276.30;1790149;78;21576;-65
2021/04/06 02:42:40;;;;;;;12.15;8.68;;;;;;;2.42;62.77;98275.41;1747129;80;21682;-67
2021/04/06 02:45:19;;;;;;;12.58;8.93;;;;;;;2.44;62.64;98278.34;1790827;78;21614;-65
2021/04/06 02:48:05;;;;;;;11.55;9.03;;;;;;;2.48;62.67;98274.75;1798352;78;21887;-65
2021/04/06 02:50:26;;;;;;;9.53;8.25;;;;;;;2.50;62.62;98278.14;1787157;78;21569;-63
2021/04/06 02:52:54;;;;;;;10.15;8.55;;;;;;;2.49;62.68;98284.25;1786587;77;21609;-65
2021/04/06 02:55:23;;;;;;;10.60;8.23;;;;;;;2.48;62.69;98282.98;1792150;78;21642;-63
2021/04/06 02:57:54;;;;;;;9.95;8.28;;;;;;;2.48;62.94;98282.53;1764403;78;21101;-65
2021/04/06 03:00:31;;;;;;;10.32;7.85;;;;;;;2.50;62.77;98276.84;1788967;77;21977;-64
2021/04/06 03:03:27;;;;;;;13.05;8.18;;;;;;;2.52;62.61;98276.38;1757097;79;21597;-65
2021/04/06 03:06:04;;;;;;;11.22;8.05;;;;;;;2.51;62.97;98268.17;1797929;77;21549;-64
2021/04/06 03:08:33;;;;;;;11.53;8.60;;;;;;;2.50;63.35;98274.70;1790399;77;21595;-68
2021/04/06 03:11:01;;;;;;;9.03;7.95;;;;;;;2.49;62.66;98276.46;1777469;78;21594;-65
2021/04/06 03:13:29;;;;;;;10.38;7.80;;;;;;;2.52;62.52;98284.59;1800006;78;22141;-66
2021/04/06 03:15:57;;;;;;;8.65;7.75;;;;;;;2.53;62.84;98283.70;1777412;79;22189;-65
2021/04/06 03:18:33;;;;;;;12.30;7.87;;;;;;;2.51;62.57;98292.83;1786528;78;21654;-64
2021/04/06 03:21:05;;;;;;;11.53;8.20;;;;;;;2.54;62.42;98289.27;1764561;78;21155;-64
2021/04/06 03:23:34;;;;;;;11.93;8.43;;;;;;;2.56;62.39;98285.34;1799582;77;21649;-63
2021/04/06 03:26:04;;;;;;;10.10;8.18;;;;;;;2.56;62.40;98280.98;1788733;78;21980;-62
2021/04/06 03:28:37;;;;;;;11.85;8.75;;;;;;;2.55;62.56;98296.17;1801511;78;21569;-64
2021/04/06 03:31:14;;;;;;;14.43;8.38;;;;;;;2.51;62.77;98299.31;1803374;77;21683;-63
2021/04/06 03:33:44;;;;;;;12.53;8.98;;;;;;;2.50;62.67;98300.20;1763344;79;21702;-63
2021/04/06 03:36:20;;;;;;;12.18;8.28;;;;;;;2.55;62.54;98300.53;1802079;77;21605;-63
2021/04/06 03:38:49;;;;;;;11.28;7.85;;;;;;;2.60;62.48;98293.42;1795446;77;21964;-63
2021/04/06 03:41:18;;;;;;;11.10;8.13;;;;;;;2.60;62.47;98301.20;1771495;77;21592;-63
2021/04/06 03:43:48;;;;;;;9.93;7.67;;;;;;;2.62;62.38;98300.28;1800025;77;21575;-63
2021/04/06 03:46:24;;;;;;;9.10;8.08;;;;;;;2.66;62.25;98297.14;1793527;77;21678;-68
2021/04/06 03:48:52;;;;;;;12.03;8.68;;;;;;;2.69;62.27;98306.10;1769888;79;21604;-63
2021/04/06 03:51:30;;;;;;;9.98;7.47;;;;;;;2.71;62.26;98306.47;1776028;78;22061;-63
2021/04/06 03:53:57;;;;;;;11.97;8.53;;;;;;;2.71;62.21;98305.17;1799080;77;21129;-64
2021/04/06 03:56:32;;;;;;;10.10;7.90;;;;;;;2.72;62.21;98308.61;1796507;78;21110;-65
2021/04/06 03:59:02;;;;;;;9.20;7.42;;;;;;;2.71;62.38;98305.60;1798316;77;21162;-64
2021/04/06 04:01:31;;;;;;;11.08;7.70;;;;;;;2.71;62.40;98303.01;1793941;78;21592;-64
2021/04/06 04:03:59;;;;;;;10.38;8.25;;;;;;;2.69;62.40;98306.98;1771574;79;22488;-64
2021/04/06 04:06:31;;;;;;;12.82;8.50;;;;;;;2.70;62.58;98298.73;1786301;77;21678;-64
2021/04/06 04:09:01;;;;;;;11.83;8.45;;;;;;;2.71;62.53;98301.28;1787269;77;21588;-64
2021/04/06 04:11:29;;;;;;;11.75;7.72;;;;;;;2.71;62.67;98299.98;1758447;78;21651;-64
2021/04/06 04:13:57;;;;;;;14.45;8.60;;;;;;;2.70;63.34;98306.52;1765126;80;22453;-64
2021/04/06 04:16:24;;;;;;;;;;;;;;;2.72;62.85;98306.02;1790809;77;21985;-68
2021/04/06 04:18:52;;;;;;;;;;;;;;;2.70;63.20;98302.63;1787698;77;20593;-63
2021/04/06 04:21:20;;;;;;;11.70;7.90;;;;;;;2.72;62.85;98301.66;1786421;78;20600;-64
2021/04/06 04:23:48;;;;;;;16.60;8.35;;;;;;;2.75;62.63;98302.03;1767146;78;21752;-63
2021/04/06 04:26:15;;;;;;;11.57;7.75;;;;;;;2.78;62.81;98293.29;1790926;78;27629;-63
2021/04/06 04:28:43;;;;;;;12.60;8.45;;;;;;;2.84;62.72;98295.67;1785712;78;21964;-63
2021/04/06 04:31:12;;;;;;;12.35;8.73;;;;;;;2.86;62.56;98288.69;1796087;77;21142;-63
2021/04/06 04:33:39;;;;;;;11.12;8.43;;;;;;;2.92;62.43;98293.69;1780080;78;21498;-65
2021/04/06 04:36:08;;;;;;;10.32;7.45;;;;;;;2.96;62.62;98297.88;1795139;77;21642;-62
2021/04/06 04:38:36;;;;;;;10.15;8.15;;;;;;;3.00;62.26;98299.47;1775129;78;21227;-64
2021/04/06 04:41:03;;;;;;;13.48;8.70;;;;;;;3.07;62.14;98301.39;1795288;77;22075;-63
2021/04/06 04:43:31;;;;;;;10.32;7.87;;;;;;;3.15;62.01;98306.35;1788567;78;21584;-63
2021/04/06 04:45:59;;;;;;;;;;;;;;;3.18;61.75;98304.93;1779327;78;21599;-63
2021/04/06 04:48:27;;;;;;;10.80;7.45;;;;;;;3.25;61.68;98312.45;1775611;79;20699;-66
2021/04/06 04:50:55;;;;;;;;;;;;;;;3.27;61.55;98314.55;1770259;79;21532;-63
2021/04/06 04:53:22;;;;;;;;;;;;;;;3.30;61.54;98311.02;1777617;79;21900;-62
2021/04/06 04:55:50;;;;;;;;;;;;;;;3.36;61.34;98315.16;1770191;79;20850;-62
2021/04/06 04:58:17;;;;;;;8.80;6.53;;;;;;;3.40;61.32;98312.38;1774995;78;20507;-63
2021/04/06 05:00:45;;;;;;;10.90;7.58;;;;;;;3.43;60.99;98313.59;1774591;78;21496;-63
2021/04/06 05:03:16;;;;;;;10.60;7.92;;;;;;;3.49;60.86;98307.33;1792785;78;21149;-63
2021/04/06 05:05:43;;;;;;;;;;;;;;;3.60;60.72;98310.81;1798002;77;22159;-63
2021/04/06 05:08:11;;;;;;;11.05;7.47;;;;;;;3.69;60.55;98308.77;1792650;78;20566;-65
2021/04/06 05:10:39;;;;;;;8.90;7.87;;;;;;;3.75;60.24;98306.39;1750957;80;21667;-63
2021/04/06 05:13:07;;;;;;;10.85;8.18;;;;;;;3.83;60.13;98314.75;1789770;78;21599;-63
2021/04/06 05:15:34;;;;;;;10.53;8.43;;;;;;;3.90;59.94;98301.08;1791466;78;21644;-63
2021/04/06 05:18:02;;;;;;;;;;;;;;;3.96;59.84;98296.94;1789316;77;21926;-63
2021/04/06 05:20:30;;;;;;;;;;;;;;;4.01;59.47;98305.86;1787536;77;20503;-62
2021/04/06 05:22:57;;;;;;;12.30;7.90;;;;;;;4.01;59.67;98302.83;1785794;78;20279;-61
2021/04/06 05:25:25;;;;;;;10.53;7.83;;;;;;;4.06;59.83;98304.78;1791510;78;21640;-61
2021/04/06 05:27:53;;;;;;;;;;;;;;;4.08;59.79;98303.43;1789094;77;21694;-60
2021/04/06 05:30:22;;;;;;;9.85;8.25;;;;;;;4.16;59.65;98303.14;1764236;80;23147;-60
2021/04/06 05:32:49;;;;;;;10.68;8.30;;;;;;;4.24;59.34;98303.71;1773928;77;21782;-61
2021/04/06 05:35:17;;;;;;;10.00;7.53;;;;;;;4.31;59.05;98305.61;1786670;77;22289;-62
2021/04/06 05:37:47;;;;;;;11.75;8.43;;;;;;;4.38;58.99;98307.91;1773022;77;21710;-61
2021/04/06 05:40:16;;;;;;;12.00;8.80;;;;;;;4.47;58.82;98312.76;1779617;79;21573;-61
2021/04/06 05:42:44;;;;;;;9.48;7.85;;;;;;;4.55;58.64;98315.06;1781232;77;22082;-62
2021/04/06 05:45:12;;;;;;;12.03;8.43;;;;;;;4.67;58.50;98305.47;1771036;77;25848;-64
2021/04/06 05:47:47;;;;;;;9.25;7.60;;;;;;;4.81;58.26;98313.18;1777280;79;21662;-65
2021/04/06 05:50:15;;;;;;;11.00;8.43;;;;;;;4.94;58.09;98319.58;1779106;79;21189;-60
2021/04/06 05:52:43;;;;;;;;;;;;;;;5.10;57.70;98317.17;1784600;77;21615;-61
2021/04/06 05:55:12;;;;;;;11.90;7.65;;;;;;;5.24;56.87;98321.36;1773620;79;22010;-68
2021/04/06 05:57:40;;;;;;;13.22;8.93;;;;;;;5.35;56.82;98318.31;1781056;77;22896;-64
2021/04/06 06:00:09;;;;;;;10.00;7.72;;;;;;;5.48;56.66;98321.21;1770740;79;21642;-62
2021/04/06 06:02:37;;;;;;;11.43;8.80;;;;;;;5.63;56.19;98326.22;1772332;79;21613;-63
2021/04/06 06:05:17;;;;;;;11.55;8.48;;;;;;;5.76;55.76;98329.98;1702542;82;21555;-63
2021/04/06 06:07:46;;;;;;;12.03;8.65;;;;;;;5.91;55.40;98327.62;1668259;84;21944;-69
2021/04/06 06:10:30;;;;;;;12.45;9.25;;;;;;;6.02;55.16;98324.94;1717224;82;21586;-61
2021/04/06 06:13:25;;;;;;;11.83;8.03;;;;;;;6.17;54.86;98319.48;1710537;82;21626;-60
2021/04/06 06:16:22;;;;;;;10.18;8.53;;;;;;;6.31;54.36;98318.86;1708549;82;21583;-59
2021/04/06 06:18:58;;;;;;;;;;;;;;;6.46;53.88;98313.83;1709643;82;21683;-59
2021/04/06 06:21:41;;;;;;;16.42;9.05;;;;;;;6.62;52.63;98316.94;1697039;83;20710;-59
2021/04/06 06:24:24;;;;;;;12.25;8.45;;;;;;;6.78;53.56;98314.45;1692647;83;21661;-61
2021/04/06 06:26:52;;;;;;;11.15;8.50;;;;;;;6.98;52.90;98320.46;1686695;83;21601;-62
2021/04/06 06:29:23;;;;;;;14.85;9.15;;;;;;;7.11;51.91;98321.55;1678548;83;21660;-66
2021/04/06 06:31:55;;;;;;;9.98;8.18;;;;;;;7.23;52.17;98320.08;1692102;83;21139;-65
2021/04/06 06:34:37;;;;;;;12.03;8.15;;;;;;;7.37;51.94;98320.70;1680371;83;22147;-67
2021/04/06 06:37:14;;;;;;;12.55;9.10;;;;;;;7.50;51.50;98327.47;1681285;83;21505;-66
2021/04/06 06:39:54;;;;;;;10.82;8.53;;;;;;;7.69;51.46;98324.75;1690068;83;22043;-65
2021/04/06 06:42:32;;;;;;;13.75;8.75;;;;;;;7.85;51.18;98319.07;1687573;83;21148;-65
2021/04/06 06:45:01;;;;;;;13.18;9.30;;;;;;;8.03;50.76;98329.05;1692371;83;21661;-64
2021/04/06 06:47:31;;;;;;;16.67;10.75;;;;;;;8.21;50.56;98323.73;1692248;83;21858;-63
2021/04/06 06:50:11;;;;;;;15.03;9.23;;;;;;;8.36;50.27;98319.84;1708597;82;22087;-63
2021/04/06 06:52:38;;;;;;;13.25;8.18;;;;;;;8.55;49.72;98317.52;1694857;83;21630;-63
2021/04/06 06:57:40;;;;;;;13.88;8.08;;;;;;;8.92;48.42;98323.32;1746432;79;22718;-63
2021/04/06 07:00:18;;;;;;;9.78;8.60;;;;;;;8.94;48.40;98325.39;1721125;80;21675;-61
2021/04/06 07:02:48;;;;;;;11.40;8.30;;;;;;;9.05;47.16;98323.00;1719719;80;22026;-65
2021/04/06 07:05:25;;;;;;;11.85;9.00;;;;;;;9.11;47.28;98324.42;1711592;82;21653;-61
2021/04/06 07:08:05;;;;;;;9.30;8.03;;;;;;;9.19;47.36;98322.19;1735259;80;21559;-63
2021/04/06 07:10:39;;;;;;;9.85;8.00;;;;;;;9.26;46.75;98320.90;1668235;83;22029;-62
2021/04/06 07:13:20;;;;;;;15.20;9.05;;;;;;;9.37;46.52;98320.28;1665984;83;21232;-62
2021/04/06 07:15:50;;;;;;;13.05;8.58;;;;;;;9.42;45.76;98305.12;1676461;82;22083;-63
2021/04/06 07:18:20;;;;;;;12.78;8.88;;;;;;;9.55;46.04;98313.95;1674163;82;21854;-62
2021/04/06 07:21:01;;;;;;;9.93;7.78;;;;;;;9.64;45.41;98319.09;1673252;82;21619;-63
2021/04/06 07:24:00;;;;;;;9.50;7.72;;;;;;;9.73;45.01;98315.91;1685007;82;21612;-62
2021/04/06 07:26:29;;;;;;;11.68;9.13;;;;;;;9.79;44.49;98319.95;1675448;82;21559;-63
2021/04/06 07:28:58;;;;;;;10.82;8.78;;;;;;;9.83;44.77;98323.23;1681915;82;21715;-64
2021/04/06 07:31:26;;;;;;;10.25;8.48;;;;;;;9.90;44.83;98328.49;1683152;82;21667;-61
2021/04/06 07:33:54;;;;;;;10.82;7.80;;;;;;;9.95;44.61;98326.44;1670978;84;21583;-63
2021/04/06 07:36:24;;;;;;;11.38;8.28;;;;;;;10.01;44.61;98322.59;1678157;84;21686;-68
2021/04/06 07:38:58;;;;;;;12.20;8.00;;;;;;;10.06;44.62;98320.06;1714898;80;21635;-62
2021/04/06 07:41:28;;;;;;;8.68;7.78;;;;;;;10.12;44.28;98315.73;1708128;82;22356;-63
2021/04/06 07:44:00;;;;;;;10.10;8.48;;;;;;;10.14;43.87;98324.36;1718390;82;21163;-63
2021/04/06 07:46:41;;;;;;;14.03;8.35;;;;;;;10.19;43.79;98319.28;1718328;80;21210;-63
2021/04/06 07:49:24;;;;;;;11.15;8.20;;;;;;;10.24;43.55;98317.22;1716568;80;21174;-62
2021/04/06 07:51:54;;;;;;;10.40;7.80;;;;;;;10.29;43.17;98321.73;1713504;80;21619;-60
2021/04/06 07:54:26;;;;;;;13.22;8.08;;;;;;;10.35;42.87;98326.63;1713844;81;22488;-61
2021/04/06 07:56:57;;;;;;;9.60;7.78;;;;;;;10.42;42.68;98327.09;1692805;81;21609;-65
2021/04/06 07:59:30;;;;;;;11.08;7.67;;;;;;;10.44;42.76;98332.61;1694703;81;21573;-61
2021/04/06 08:02:10;;;;;;;12.18;8.33;;;;;;;10.45;42.80;98331.69;1724786;80;21704;-59
2021/04/06 08:04:49;;;;;;;12.47;8.08;;;;;;;10.48;42.73;98335.42;1720919;80;21593;-60
2021/04/06 08:07:32;;;;;;;9.78;7.95;;;;;;;10.52;42.53;98335.59;1713972;80;22024;-60
2021/04/06 08:10:12;;;;;;;14.85;9.25;;;;;;;10.53;42.49;98335.14;1715378;80;21719;-60
2021/04/06 08:12:40;;;;;;;11.80;8.08;;;;;;;10.59;42.30;98333.91;1718723;80;21635;-59
2021/04/06 08:17:59;;;;;;;9.85;7.70;;;;;;;10.67;41.91;98326.37;1863632;75;23211;-60
2021/04/06 08:20:42;;;;;;;10.45;7.47;;;;;;;10.68;42.24;98326.72;1837202;76;21047;-61
2021/04/06 08:23:19;;;;;;;15.45;7.78;;;;;;;10.74;42.15;98324.17;1831963;76;22003;-60
2021/04/06 08:25:54;;;;;;;14.18;7.35;;;;;;;10.83;41.47;98329.70;1854551;75;23193;-60
2021/04/06 08:28:29;;;;;;;9.83;6.45;;;;;;;10.81;41.39;98323.70;1833156;76;21174;-59
2021/04/06 08:31:26;;;;;;;7.53;6.35;;;;;;;10.91;40.76;98333.15;1834001;75;22058;-60
2021/04/06 08:33:55;;;;;;;13.32;7.40;;;;;;;10.95;40.36;98328.53;1821658;76;21492;-60
2021/04/06 08:36:25;;;;;;;9.68;7.22;;;;;;;11.04;40.58;98333.20;1826641;76;21738;-61
2021/04/06 08:39:14;;;;;;;10.80;7.40;;;;;;;11.10;40.15;98328.84;1798615;77;21663;-60
2021/04/06 08:41:42;;;;;;;8.88;6.72;;;;;;;11.20;40.36;98327.75;1664427;83;21734;-60
2021/04/06 08:44:12;;;;;;;9.73;7.00;;;;;;;11.31;40.56;98323.94;1619359;84;21841;-63
2021/04/06 08:46:43;;;;;;;11.50;7.00;;;;;;;11.40;39.57;98327.75;1616192;85;21664;-61
2021/04/06 08:49:26;;;;;;;9.50;7.50;;;;;;;11.44;39.27;98317.38;1674025;83;21588;-60
2021/04/06 08:51:59;;;;;;;8.93;7.55;;;;;;;11.44;39.53;98320.85;1666277;83;21607;-61
2021/04/06 08:54:32;;;;;;;12.13;7.17;;;;;;;11.51;39.43;98317.34;1666838;83;21658;-59
2021/04/06 08:57:06;;;;;;;7.28;6.55;;;;;;;11.60;39.67;98318.04;1661585;85;22117;-59
2021/04/06 08:59:42;;;;;;;11.15;6.37;;;;;;;11.71;38.71;98315.97;1662650;84;21623;-60
2021/04/06 09:02:14;;;;;;;8.85;6.25;;;;;;;11.80;38.28;98318.45;1662688;83;21725;-61
2021/04/06 09:04:50;;;;;;;11.78;7.50;;;;;;;11.87;38.31;98315.28;1687850;83;21606;-60
2021/04/06 09:07:26;;;;;;;13.28;7.97;;;;;;;11.95;38.16;98311.32;1742142;80;21453;-61
2021/04/06 09:10:01;;;;;;;10.75;7.78;;;;;;;12.01;38.28;98311.72;1737426;80;22044;-62
2021/04/06 09:12:29;;;;;;;9.28;7.08;;;;;;;12.11;37.64;98293.95;1707305;82;21623;-66
2021/04/06 09:14:57;;;;;;;7.75;6.60;;;;;;;12.21;37.89;98295.00;1705157;81;21221;-62
2021/04/06 09:20:12;;;;;;;8.10;7.30;;;;;;;12.52;36.60;98298.06;1863078;75;22602;-60
2021/04/06 09:22:41;;;;;;;8.95;5.97;;;;;;;12.56;36.32;98292.93;1835699;76;21203;-63
2021/04/06 09:25:22;;;;;;;8.63;6.30;;;;;;;12.65;36.09;98300.18;1833433;76;21774;-60
2021/04/06 09:27:59;;;;;;;6.53;5.50;;;;;;;12.69;35.57;98296.36;1834046;77;21651;-61
2021/04/06 09:30:34;;;;;;;6.33;5.17;;;;;;;12.70;35.13;98294.10;1839133;75;21527;-61
2021/04/06 09:33:08;;;;;;;8.68;6.12;;;;;;;12.73;35.43;98297.81;1836799;76;21602;-62
2021/04/06 09:35:36;;;;;;;7.12;6.35;;;;;;;12.84;35.49;98295.23;1831391;76;21578;-61
2021/04/06 09:38:03;;;;;;;;;;;;;;;12.93;35.41;98289.77;1839553;76;22014;-64
2021/04/06 09:40:37;;;;;;;6.53;4.78;;;;;;;13.03;34.35;98292.11;1802725;77;20570;-61
2021/04/06 09:43:05;;;;;;;5.90;4.58;;;;;;;13.14;34.14;98290.45;1773457;79;21449;-61
2021/04/06 09:45:33;;;;;;;8.83;5.78;;;;;;;13.23;33.33;98295.88;1771576;79;21690;-60
2021/04/06 09:48:01;;;;;;;7.95;5.90;;;;;;;13.38;34.48;98295.23;1760226;79;21647;-64
2021/04/06 09:50:29;;;;;;;;;;;;;;;13.56;34.33;98293.00;1779998;78;22060;-61
2021/04/06 09:52:56;;;;;;;6.15;5.55;;;;;;;13.60;32.85;98282.56;1769454;79;20579;-61
2021/04/06 09:55:25;;;;;;;;;;;;;;;13.68;34.18;98280.64;1774200;79;21670;-66
2021/04/06 09:57:54;;;;;;;6.55;4.95;;;;;;;13.76;33.37;98269.48;1775840;78;20576;-62
2021/04/06 10:00:29;;;;;;;7.22;5.62;;;;;;;13.81;33.83;98275.26;1775889;78;21607;-60
2021/04/06 10:03:15;;;;;;;11.43;5.70;;;;;;;13.94;33.71;98265.90;1773654;78;22031;-62
2021/04/06 10:05:45;;;;;;;6.25;5.25;;;;;;;14.02;33.66;98267.45;1774151;79;21655;-62
2021/04/06 10:08:13;;;;;;;6.37;4.60;;;;;;;14.13;32.62;98266.12;1769009;79;21648;-62
2021/04/06 10:10:48;;;;;;;9.83;4.85;;;;;;;14.22;31.43;98267.17;1771664;78;21568;-61
2021/04/06 10:13:17;;;;;;;6.15;4.87;;;;;;;14.30;32.47;98262.13;1775400;78;21552;-71
2021/04/06 10:15:44;;;;;;;6.20;5.55;;;;;;;14.38;31.64;98265.48;1744660;79;22357;-70
2021/04/06 10:18:15;;;;;;;4.75;4.33;;;;;;;14.32;31.90;98261.52;1773508;79;21563;-71
2021/04/06 10:20:47;;;;;;;7.12;4.50;;;;;;;14.18;31.76;98265.73;1774392;78;21619;-70
2021/04/06 10:23:34;;;;;;;6.08;5.35;;;;;;;14.15;32.22;98266.00;1777938;78;21599;-69
2021/04/06 10:26:04;;;;;;;6.62;5.90;;;;;;;14.23;32.34;98260.10;1759986;78;21609;-68
2021/04/06 10:28:32;;;;;;;6.22;5.00;;;;;;;14.29;32.37;98252.50;1738455;79;21993;-68
2021/04/06 10:31:02;;;;;;;5.70;5.10;;;;;;;14.31;31.99;98254.54;1777717;78;24130;-66
2021/04/06 10:33:33;;;;;;;6.30;5.40;;;;;;;14.32;31.76;98257.55;1771855;78;21480;-66
2021/04/06 10:36:09;;;;;;;8.15;5.20;;;;;;;14.29;31.83;98260.44;1774824;78;21621;-68
2021/04/06 10:38:39;;;;;;;5.97;4.55;;;;;;;14.29;32.12;98239.77;1778846;78;21623;-69
2021/04/06 10:41:10;;;;;;;11.08;5.10;;;;;;;14.48;32.30;98244.41;1780837;78;21611;-68
2021/04/06 10:43:51;;;;;;;7.03;4.25;;;;;;;14.59;31.58;98247.89;1772316;78;21579;-68
2021/04/06 10:46:22;;;;;;;9.13;5.12;;;;;;;14.65;31.07;98248.36;1773689;79;21549;-68
2021/04/06 10:48:54;;;;;;;6.25;4.92;;;;;;;14.69;30.70;98239.20;1784338;78;21587;-67
2021/04/06 10:51:24;;;;;;;7.75;5.08;;;;;;;14.75;31.16;98250.14;1775093;78;21541;-68
2021/04/06 10:53:59;;;;;;;6.60;5.08;;;;;;;14.86;31.31;98242.65;1776988;78;22080;-66
2021/04/06 10:56:30;;;;;;;6.85;5.03;;;;;;;15.01;31.17;98239.67;1782980;78;21651;-66
2021/04/06 10:59:03;;;;;;;5.05;4.55;;;;;;;15.14;29.90;98237.68;1779737;79;21620;-69
2021/04/06 11:01:45;;;;;;;6.58;5.05;;;;;;;15.22;30.23;98223.33;1780343;79;21182;-66
2021/04/06 11:04:19;;;;;;;6.10;5.10;;;;;;;15.27;30.12;98228.22;1766084;79;21651;-66
2021/04/06 11:07:00;;;;;;;6.37;5.33;;;;;;;15.15;30.31;98205.79;1777965;78;21984;-65
2021/04/06 11:09:40;;;;;;;7.78;4.72;;;;;;;15.43;30.03;98227.28;1772309;79;21728;-65
2021/04/06 11:12:11;;;;;;;5.00;4.33;;;;;;;15.51;29.61;98237.22;1773409;79;21564;-65
2021/04/06 11:14:40;;;;;;;6.80;3.95;;;;;;;15.54;29.36;98235.16;1778542;78;21639;-65
2021/04/06 11:17:11;;;;;;;7.90;4.60;;;;;;;15.50;29.50;98231.09;1776410;79;21652;-65
2021/04/06 11:19:42;;;;;;;5.85;4.40;;;;;;;15.47;29.45;98222.56;1777377;78;22103;-66
2021/04/06 11:22:12;;;;;;;12.88;5.45;;;;;;;15.42;29.51;98226.92;1780445;78;21644;-64
2021/04/06 11:24:44;;;;;;;6.72;5.70;;;;;;;15.27;29.43;98234.84;1779941;78;21615;-67
2021/04/06 11:27:18;;;;;;;9.43;5.92;;;;;;;15.09;29.53;98236.75;1780342;78;21206;-68
2021/04/06 11:29:50;;;;;;;6.62;5.62;;;;;;;14.93;29.71;98231.88;1775595;78;21578;-67
2021/04/06 11:32:20;;;;;;;8.45;5.92;;;;;;;14.88;30.16;98228.80;1780112;78;21639;-68
2021/04/06 11:34:48;;;;;;;6.85;5.67;;;;;;;14.84;29.55;98221.23;1777093;78;21699;-67
2021/04/06 11:37:16;;;;;;;;;;;;;;;14.71;29.77;98214.78;1772894;79;21648;-68
2021/04/06 11:39:46;;;;;;;5.85;5.20;;;;;;;14.68;30.15;98213.24;1776329;79;20545;-67
2021/04/06 11:42:16;;;;;;;7.60;5.37;;;;;;;14.81;30.25;98207.78;1770562;78;21577;-68
2021/04/06 11:44:45;;;;;;;7.90;5.15;;;;;;;15.01;29.79;98191.55;1781861;79;21943;-69
2021/04/06 11:47:13;;;;;;;7.87;5.70;;;;;;;15.02;29.23;98196.38;1781906;78;21600;-66
2021/04/06 11:49:41;;;;;;;7.30;5.55;;;;;;;15.19;30.06;98187.84;1776467;78;21600;-68
2021/04/06 11:52:09;;;;;;;;;;;;;;;15.30;29.53;98194.39;1783692;79;21654;-67
2021/04/06 11:54:37;;;;;;;6.65;5.10;;;;;;;15.42;29.64;98193.81;1778253;78;20579;-67
2021/04/06 11:57:06;;;;;;;6.25;5.67;;;;;;;15.49;29.84;98192.32;1774754;78;21807;-67
2021/04/06 11:59:34;;;;;;;7.05;5.58;;;;;;;15.58;29.55;98194.67;1780292;78;21158;-70
2021/04/06 12:02:04;;;;;;;6.95;6.20;;;;;;;15.63;28.95;98192.94;1773627;78;21683;-67
2021/04/06 12:04:32;;;;;;;;;;;;;;;15.65;28.83;98187.87;1758235;79;21675;-67
2021/04/06 12:07:01;;;;;;;7.55;5.78;;;;;;;15.78;28.87;98190.30;1768743;78;20599;-67
2021/04/06 12:09:29;;;;;;;8.10;6.17;;;;;;;15.87;29.15;98191.33;1778580;79;22038;-67
2021/04/06 12:11:57;;;;;;;11.93;6.67;;;;;;;15.91;28.99;98180.30;1777625;78;21669;-67
2021/04/06 12:14:24;;;;;;;;;;;;;;;16.01;28.67;98179.03;1774005;79;21715;-66